sensor_id;sensor_type;location;lat;lon;timestamp;pressure;altitude;pressure_sealevel;temperature
53667;BMP280;39568;51.026;5.468;2022-07-29T00:00:25;100874.25;;;16.57
53667;BMP280;39568;51.026;5.468;2022-07-29T00:02:52;100867.44;;;16.35
53667;BMP280;39568;51.026;5.468;2022-07-29T00:05:18;100866.22;;;16.23
53667;BMP280;39568;51.026;5.468;2022-07-29T00:07:51;100848.38;;;16.12
53667;BMP280;39568;51.026;5.468;2022-07-29T00:10:20;100849.41;;;16.09
53667;BMP280;39568;51.026;5.468;2022-07-29T00:12:47;100858.94;;;16.10
53667;BMP280;39568;51.026;5.468;2022-07-29T00:15:15;100867.16;;;16.12
53667;BMP280;39568;51.026;5.468;2022-07-29T00:17:42;100867.28;;;16.07
53667;BMP280;39568;51.026;5.468;2022-07-29T00:20:09;100866.25;;;16.10
53667;BMP280;39568;51.026;5.468;2022-07-29T00:22:38;100872.66;;;16.07
53667;BMP280;39568;51.026;5.468;2022-07-29T00:25:06;100872.84;;;16.09
53667;BMP280;39568;51.026;5.468;2022-07-29T00:27:35;100866.53;;;16.19
53667;BMP280;39568;51.026;5.468;2022-07-29T00:30:07;100853.13;;;16.19
53667;BMP280;39568;51.026;5.468;2022-07-29T00:32:36;100854.13;;;16.16
53667;BMP280;39568;51.026;5.468;2022-07-29T00:35:03;100844.00;;;16.23
53667;BMP280;39568;51.026;5.468;2022-07-29T00:37:48;100836.53;;;16.29
53667;BMP280;39568;51.026;5.468;2022-07-29T00:40:15;100829.50;;;16.39
53667;BMP280;39568;51.026;5.468;2022-07-29T00:42:46;100828.13;;;16.45
53667;BMP280;39568;51.026;5.468;2022-07-29T00:45:13;100833.75;;;16.55
53667;BMP280;39568;51.026;5.468;2022-07-29T00:47:43;100841.75;;;16.47
53667;BMP280;39568;51.026;5.468;2022-07-29T00:50:13;100841.81;;;16.34
53667;BMP280;39568;51.026;5.468;2022-07-29T00:52:41;100840.34;;;16.33
53667;BMP280;39568;51.026;5.468;2022-07-29T00:55:10;100836.94;;;16.33
53667;BMP280;39568;51.026;5.468;2022-07-29T00:57:37;100839.44;;;16.31
53667;BMP280;39568;51.026;5.468;2022-07-29T01:00:09;100838.00;;;16.30
53667;BMP280;39568;51.026;5.468;2022-07-29T01:02:36;100836.16;;;16.25
53667;BMP280;39568;51.026;5.468;2022-07-29T01:05:06;100833.13;;;16.28
53667;BMP280;39568;51.026;5.468;2022-07-29T01:07:34;100835.66;;;16.26
53667;BMP280;39568;51.026;5.468;2022-07-29T01:10:02;100836.28;;;16.19
53667;BMP280;39568;51.026;5.468;2022-07-29T01:12:32;100828.44;;;16.21
53667;BMP280;39568;51.026;5.468;2022-07-29T01:15:00;100831.66;;;16.19
53667;BMP280;39568;51.026;5.468;2022-07-29T01:17:33;100813.25;;;16.24
53667;BMP280;39568;51.026;5.468;2022-07-29T01:20:10;100811.78;;;16.23
53667;BMP280;39568;51.026;5.468;2022-07-29T01:23:06;100818.63;;;16.24
53667;BMP280;39568;51.026;5.468;2022-07-29T01:26:03;100811.06;;;16.22
53667;BMP280;39568;51.026;5.468;2022-07-29T01:28:49;100817.16;;;16.23
53667;BMP280;39568;51.026;5.468;2022-07-29T01:31:23;100810.38;;;16.22
53667;BMP280;39568;51.026;5.468;2022-07-29T01:33:57;100809.91;;;16.31
53667;BMP280;39568;51.026;5.468;2022-07-29T01:36:31;100812.59;;;16.31
53667;BMP280;39568;51.026;5.468;2022-07-29T01:39:04;100814.94;;;16.34
53667;BMP280;39568;51.026;5.468;2022-07-29T01:41:32;100824.75;;;16.32
53667;BMP280;39568;51.026;5.468;2022-07-29T01:44:10;100819.69;;;16.28
53667;BMP280;39568;51.026;5.468;2022-07-29T01:46:41;100820.38;;;16.21
53667;BMP280;39568;51.026;5.468;2022-07-29T01:49:16;100812.47;;;16.15
53667;BMP280;39568;51.026;5.468;2022-07-29T01:51:49;100799.53;;;16.14
53667;BMP280;39568;51.026;5.468;2022-07-29T01:54:22;100810.66;;;16.18
53667;BMP280;39568;51.026;5.468;2022-07-29T01:56:55;100801.59;;;16.21
53667;BMP280;39568;51.026;5.468;2022-07-29T01:59:27;100804.16;;;16.27
53667;BMP280;39568;51.026;5.468;2022-07-29T02:01:58;100815.16;;;16.36
53667;BMP280;39568;51.026;5.468;2022-07-29T02:04:26;100833.09;;;16.41
53667;BMP280;39568;51.026;5.468;2022-07-29T02:06:57;100839.94;;;16.42
53667;BMP280;39568;51.026;5.468;2022-07-29T02:09:26;100838.19;;;16.32
53667;BMP280;39568;51.026;5.468;2022-07-29T02:11:54;100835.56;;;16.18
53667;BMP280;39568;51.026;5.468;2022-07-29T02:14:23;100829.41;;;15.97
53667;BMP280;39568;51.026;5.468;2022-07-29T02:16:55;100814.91;;;15.80
53667;BMP280;39568;51.026;5.468;2022-07-29T02:19:25;100810.19;;;15.73
53667;BMP280;39568;51.026;5.468;2022-07-29T02:21:54;100801.66;;;15.61
53667;BMP280;39568;51.026;5.468;2022-07-29T02:24:23;100793.78;;;15.50
53667;BMP280;39568;51.026;5.468;2022-07-29T02:26:53;100781.97;;;15.45
53667;BMP280;39568;51.026;5.468;2022-07-29T02:29:23;100772.25;;;15.42
53667;BMP280;39568;51.026;5.468;2022-07-29T02:31:52;100774.63;;;15.33
53667;BMP280;39568;51.026;5.468;2022-07-29T02:34:23;100776.91;;;15.29
53667;BMP280;39568;51.026;5.468;2022-07-29T02:36:51;100773.41;;;15.21
53667;BMP280;39568;51.026;5.468;2022-07-29T02:39:23;100764.13;;;15.22
53667;BMP280;39568;51.026;5.468;2022-07-29T02:41:54;100771.13;;;15.25
53667;BMP280;39568;51.026;5.468;2022-07-29T02:44:24;100760.59;;;15.27
53667;BMP280;39568;51.026;5.468;2022-07-29T02:47:07;100758.75;;;15.35
53667;BMP280;39568;51.026;5.468;2022-07-29T02:49:40;100748.44;;;15.39
53667;BMP280;39568;51.026;5.468;2022-07-29T02:52:16;100742.25;;;15.44
53667;BMP280;39568;51.026;5.468;2022-07-29T02:54:49;100749.88;;;15.40
53667;BMP280;39568;51.026;5.468;2022-07-29T02:57:22;100761.63;;;15.50
53667;BMP280;39568;51.026;5.468;2022-07-29T02:59:57;100761.81;;;15.52
53667;BMP280;39568;51.026;5.468;2022-07-29T03:02:27;100759.63;;;15.64
53667;BMP280;39568;51.026;5.468;2022-07-29T03:04:57;100762.19;;;15.69
53667;BMP280;39568;51.026;5.468;2022-07-29T03:07:24;100764.03;;;15.74
53667;BMP280;39568;51.026;5.468;2022-07-29T03:09:54;100760.13;;;15.75
53667;BMP280;39568;51.026;5.468;2022-07-29T03:12:28;100764.25;;;15.76
53667;BMP280;39568;51.026;5.468;2022-07-29T03:15:02;100765.88;;;15.79
53667;BMP280;39568;51.026;5.468;2022-07-29T03:17:30;100765.06;;;15.84
53667;BMP280;39568;51.026;5.468;2022-07-29T03:20:02;100769.00;;;15.70
53667;BMP280;39568;51.026;5.468;2022-07-29T03:22:31;100769.34;;;15.67
53667;BMP280;39568;51.026;5.468;2022-07-29T03:25:07;100770.34;;;15.64
53667;BMP280;39568;51.026;5.468;2022-07-29T03:27:35;100764.25;;;15.76
53667;BMP280;39568;51.026;5.468;2022-07-29T03:30:03;100765.50;;;15.75
53667;BMP280;39568;51.026;5.468;2022-07-29T03:32:32;100766.53;;;15.72
53667;BMP280;39568;51.026;5.468;2022-07-29T03:35:05;100765.09;;;15.71
53667;BMP280;39568;51.026;5.468;2022-07-29T03:37:33;100765.72;;;15.64
53667;BMP280;39568;51.026;5.468;2022-07-29T03:40:04;100761.47;;;15.69
53667;BMP280;39568;51.026;5.468;2022-07-29T03:42:35;100765.72;;;15.64
53667;BMP280;39568;51.026;5.468;2022-07-29T03:45:07;100764.50;;;15.65
53667;BMP280;39568;51.026;5.468;2022-07-29T03:47:39;100773.38;;;15.60
53667;BMP280;39568;51.026;5.468;2022-07-29T03:50:10;100763.69;;;15.57
53667;BMP280;39568;51.026;5.468;2022-07-29T03:52:38;100759.97;;;15.60
53667;BMP280;39568;51.026;5.468;2022-07-29T03:55:07;100751.91;;;15.60
53667;BMP280;39568;51.026;5.468;2022-07-29T03:57:36;100764.59;;;15.60
53667;BMP280;39568;51.026;5.468;2022-07-29T04:00:05;100763.88;;;15.59
53667;BMP280;39568;51.026;5.468;2022-07-29T04:02:32;100766.78;;;15.61
53667;BMP280;39568;51.026;5.468;2022-07-29T04:05:00;100768.19;;;15.62
53667;BMP280;39568;51.026;5.468;2022-07-29T04:07:29;100766.66;;;15.67
53667;BMP280;39568;51.026;5.468;2022-07-29T04:09:56;100767.69;;;15.64
53667;BMP280;39568;51.026;5.468;2022-07-29T04:12:23;100773.47;;;15.55
53667;BMP280;39568;51.026;5.468;2022-07-29T04:14:52;100771.31;;;15.53
53667;BMP280;39568;51.026;5.468;2022-07-29T04:17:19;100782.03;;;15.53
53667;BMP280;39568;51.026;5.468;2022-07-29T04:19:46;100780.91;;;15.48
53667;BMP280;39568;51.026;5.468;2022-07-29T04:22:13;100784.31;;;15.49
53667;BMP280;39568;51.026;5.468;2022-07-29T04:24:41;100781.25;;;15.45
53667;BMP280;39568;51.026;5.468;2022-07-29T04:27:08;100774.19;;;15.42
53667;BMP280;39568;51.026;5.468;2022-07-29T04:29:36;100783.91;;;15.45
53667;BMP280;39568;51.026;5.468;2022-07-29T04:32:03;100785.53;;;15.48
53667;BMP280;39568;51.026;5.468;2022-07-29T04:34:31;100774.50;;;15.65
53667;BMP280;39568;51.026;5.468;2022-07-29T04:36:57;100781.41;;;15.60
53667;BMP280;39568;51.026;5.468;2022-07-29T04:39:26;100778.84;;;15.41
53667;BMP280;39568;51.026;5.468;2022-07-29T04:41:55;100789.69;;;15.36
53667;BMP280;39568;51.026;5.468;2022-07-29T04:44:21;100787.53;;;15.34
53667;BMP280;39568;51.026;5.468;2022-07-29T04:46:48;100793.59;;;15.35
53667;BMP280;39568;51.026;5.468;2022-07-29T04:49:15;100791.94;;;15.32
53667;BMP280;39568;51.026;5.468;2022-07-29T04:51:43;100796.50;;;15.37
53667;BMP280;39568;51.026;5.468;2022-07-29T04:54:10;100797.31;;;15.45
53667;BMP280;39568;51.026;5.468;2022-07-29T04:56:37;100796.28;;;15.48
53667;BMP280;39568;51.026;5.468;2022-07-29T04:59:10;100789.13;;;15.64
53667;BMP280;39568;51.026;5.468;2022-07-29T05:01:36;100779.41;;;15.74
53667;BMP280;39568;51.026;5.468;2022-07-29T05:04:03;100792.72;;;15.79
53667;BMP280;39568;51.026;5.468;2022-07-29T05:06:30;100798.50;;;15.83
53667;BMP280;39568;51.026;5.468;2022-07-29T05:08:58;100802.81;;;15.86
53667;BMP280;39568;51.026;5.468;2022-07-29T05:11:26;100806.94;;;15.87
53667;BMP280;39568;51.026;5.468;2022-07-29T05:13:54;100797.09;;;16.03
53667;BMP280;39568;51.026;5.468;2022-07-29T05:16:22;100803.78;;;16.09
53667;BMP280;39568;51.026;5.468;2022-07-29T05:18:50;100802.94;;;16.14
53667;BMP280;39568;51.026;5.468;2022-07-29T05:21:18;100812.03;;;16.11
53667;BMP280;39568;51.026;5.468;2022-07-29T05:23:45;100812.97;;;16.01
53667;BMP280;39568;51.026;5.468;2022-07-29T05:26:12;100811.25;;;16.03
53667;BMP280;39568;51.026;5.468;2022-07-29T05:28:44;100819.81;;;16.02
53667;BMP280;39568;51.026;5.468;2022-07-29T05:31:13;100826.97;;;15.99
53667;BMP280;39568;51.026;5.468;2022-07-29T05:33:41;100826.72;;;16.10
53667;BMP280;39568;51.026;5.468;2022-07-29T05:36:08;100831.16;;;16.08
53667;BMP280;39568;51.026;5.468;2022-07-29T05:38:35;100846.72;;;16.09
53667;BMP280;39568;51.026;5.468;2022-07-29T05:41:02;100843.69;;;15.92
53667;BMP280;39568;51.026;5.468;2022-07-29T05:43:30;100839.13;;;16.00
53667;BMP280;39568;51.026;5.468;2022-07-29T05:45:57;100847.47;;;16.10
53667;BMP280;39568;51.026;5.468;2022-07-29T05:48:26;100847.03;;;16.06
53667;BMP280;39568;51.026;5.468;2022-07-29T05:50:57;100845.28;;;16.08
53667;BMP280;39568;51.026;5.468;2022-07-29T05:53:28;100849.94;;;16.08
53667;BMP280;39568;51.026;5.468;2022-07-29T05:56:04;100853.13;;;16.06
53667;BMP280;39568;51.026;5.468;2022-07-29T05:58:31;100852.09;;;16.09
53667;BMP280;39568;51.026;5.468;2022-07-29T06:00:59;100839.91;;;16.08
53667;BMP280;39568;51.026;5.468;2022-07-29T06:03:27;100847.47;;;16.10
53667;BMP280;39568;51.026;5.468;2022-07-29T06:05:56;100853.03;;;16.12
53667;BMP280;39568;51.026;5.468;2022-07-29T06:08:27;100857.22;;;16.20
53667;BMP280;39568;51.026;5.468;2022-07-29T06:10:59;100856.28;;;16.31
53667;BMP280;39568;51.026;5.468;2022-07-29T06:13:25;100854.31;;;16.32
53667;BMP280;39568;51.026;5.468;2022-07-29T06:15:53;100850.66;;;16.42
53667;BMP280;39568;51.026;5.468;2022-07-29T06:18:21;100861.47;;;16.50
53667;BMP280;39568;51.026;5.468;2022-07-29T06:20:50;100865.13;;;16.60
53667;BMP280;39568;51.026;5.468;2022-07-29T06:23:20;100869.94;;;16.74
53667;BMP280;39568;51.026;5.468;2022-07-29T06:25:49;100874.69;;;16.89
53667;BMP280;39568;51.026;5.468;2022-07-29T06:28:23;100885.75;;;17.06
53667;BMP280;39568;51.026;5.468;2022-07-29T06:30:56;100882.94;;;16.91
53667;BMP280;39568;51.026;5.468;2022-07-29T06:33:25;100883.72;;;16.99
53667;BMP280;39568;51.026;5.468;2022-07-29T06:35:54;100874.50;;;17.08
53667;BMP280;39568;51.026;5.468;2022-07-29T06:38:23;100874.53;;;17.15
53667;BMP280;39568;51.026;5.468;2022-07-29T06:40:50;100876.38;;;17.20
53667;BMP280;39568;51.026;5.468;2022-07-29T06:43:26;100879.56;;;17.19
53667;BMP280;39568;51.026;5.468;2022-07-29T06:45:54;100879.78;;;17.21
53667;BMP280;39568;51.026;5.468;2022-07-29T06:48:21;100873.56;;;17.33
53667;BMP280;39568;51.026;5.468;2022-07-29T06:50:50;100867.19;;;17.44
53667;BMP280;39568;51.026;5.468;2022-07-29T06:53:16;100880.31;;;17.47
53667;BMP280;39568;51.026;5.468;2022-07-29T06:55:44;100873.28;;;17.44
53667;BMP280;39568;51.026;5.468;2022-07-29T06:58:11;100877.63;;;17.47
53667;BMP280;39568;51.026;5.468;2022-07-29T07:00:40;100876.78;;;17.60
53667;BMP280;39568;51.026;5.468;2022-07-29T07:03:10;100883.78;;;17.63
53667;BMP280;39568;51.026;5.468;2022-07-29T07:05:37;100894.00;;;17.64
53667;BMP280;39568;51.026;5.468;2022-07-29T07:08:04;100897.38;;;17.57
53667;BMP280;39568;51.026;5.468;2022-07-29T07:10:32;100900.88;;;17.45
53667;BMP280;39568;51.026;5.468;2022-07-29T07:13:01;100903.09;;;17.54
53667;BMP280;39568;51.026;5.468;2022-07-29T07:15:30;100902.59;;;17.63
53667;BMP280;39568;51.026;5.468;2022-07-29T07:17:58;100894.00;;;17.64
53667;BMP280;39568;51.026;5.468;2022-07-29T07:20:25;100902.66;;;17.70
53667;BMP280;39568;51.026;5.468;2022-07-29T07:22:55;100902.59;;;17.99
53667;BMP280;39568;51.026;5.468;2022-07-29T07:25:23;100902.44;;;18.04
53667;BMP280;39568;51.026;5.468;2022-07-29T07:27:50;100900.06;;;18.01
53667;BMP280;39568;51.026;5.468;2022-07-29T07:30:23;100902.44;;;18.12
53667;BMP280;39568;51.026;5.468;2022-07-29T07:32:55;100903.38;;;18.29
53667;BMP280;39568;51.026;5.468;2022-07-29T07:35:24;100907.38;;;18.51
53667;BMP280;39568;51.026;5.468;2022-07-29T07:37:52;100907.22;;;18.64
53667;BMP280;39568;51.026;5.468;2022-07-29T07:40:22;100911.72;;;18.69
53667;BMP280;39568;51.026;5.468;2022-07-29T07:42:48;100911.88;;;18.86
53667;BMP280;39568;51.026;5.468;2022-07-29T07:45:21;100912.22;;;19.05
53667;BMP280;39568;51.026;5.468;2022-07-29T07:47:50;100912.41;;;19.15
53667;BMP280;39568;51.026;5.468;2022-07-29T07:50:17;100909.91;;;18.94
53667;BMP280;39568;51.026;5.468;2022-07-29T07:52:50;100907.41;;;18.96
53667;BMP280;39568;51.026;5.468;2022-07-29T07:55:27;100907.88;;;19.25
53667;BMP280;39568;51.026;5.468;2022-07-29T07:57:56;100904.75;;;19.59
53667;BMP280;39568;51.026;5.468;2022-07-29T08:00:24;100907.13;;;19.87
53667;BMP280;39568;51.026;5.468;2022-07-29T08:02:53;100909.44;;;20.23
53667;BMP280;39568;51.026;5.468;2022-07-29T08:05:21;100908.41;;;20.43
53667;BMP280;39568;51.026;5.468;2022-07-29T08:07:48;100907.28;;;20.70
53667;BMP280;39568;51.026;5.468;2022-07-29T08:10:16;100914.63;;;20.94
53667;BMP280;39568;51.026;5.468;2022-07-29T08:13:03;100911.63;;;21.25
53667;BMP280;39568;51.026;5.468;2022-07-29T08:15:44;100912.06;;;21.48
53667;BMP280;39568;51.026;5.468;2022-07-29T08:18:11;100904.06;;;21.67
53667;BMP280;39568;51.026;5.468;2022-07-29T08:20:38;100896.91;;;21.62
53667;BMP280;39568;51.026;5.468;2022-07-29T08:23:06;100905.81;;;21.72
53667;BMP280;39568;51.026;5.468;2022-07-29T08:25:36;100910.09;;;21.65
53667;BMP280;39568;51.026;5.468;2022-07-29T08:28:05;100906.66;;;21.65
53667;BMP280;39568;51.026;5.468;2022-07-29T08:30:31;100915.84;;;21.79
53667;BMP280;39568;51.026;5.468;2022-07-29T08:33:00;100920.63;;;21.98
53667;BMP280;39568;51.026;5.468;2022-07-29T08:35:27;100912.75;;;22.19
53667;BMP280;39568;51.026;5.468;2022-07-29T08:37:56;100917.34;;;22.35
53667;BMP280;39568;51.026;5.468;2022-07-29T08:40:24;100921.50;;;22.36
53667;BMP280;39568;51.026;5.468;2022-07-29T08:42:51;100935.28;;;22.57
53667;BMP280;39568;51.026;5.468;2022-07-29T08:45:18;100928.94;;;22.45
53667;BMP280;39568;51.026;5.468;2022-07-29T08:47:45;100929.28;;;22.59
53667;BMP280;39568;51.026;5.468;2022-07-29T08:50:13;100932.84;;;22.80
53667;BMP280;39568;51.026;5.468;2022-07-29T08:52:40;100936.44;;;22.73
53667;BMP280;39568;51.026;5.468;2022-07-29T08:55:09;100940.75;;;22.86
53667;BMP280;39568;51.026;5.468;2022-07-29T08:57:41;100936.59;;;23.04
53667;BMP280;39568;51.026;5.468;2022-07-29T09:00:09;100938.03;;;23.15
53667;BMP280;39568;51.026;5.468;2022-07-29T09:02:40;100931.44;;;23.37
53667;BMP280;39568;51.026;5.468;2022-07-29T09:05:08;100933.41;;;23.65
53667;BMP280;39568;51.026;5.468;2022-07-29T09:07:39;100937.47;;;23.85
53667;BMP280;39568;51.026;5.468;2022-07-29T09:10:08;100935.78;;;24.11
53667;BMP280;39568;51.026;5.468;2022-07-29T09:12:35;100943.78;;;24.39
53667;BMP280;39568;51.026;5.468;2022-07-29T09:15:03;100946.03;;;24.52
53667;BMP280;39568;51.026;5.468;2022-07-29T09:17:48;100942.66;;;24.42
53667;BMP280;39568;51.026;5.468;2022-07-29T09:20:17;100950.34;;;24.46
53667;BMP280;39568;51.026;5.468;2022-07-29T09:22:45;100945.03;;;24.48
53667;BMP280;39568;51.026;5.468;2022-07-29T09:25:32;100941.06;;;25.03
53667;BMP280;39568;51.026;5.468;2022-07-29T09:28:05;100939.31;;;25.63
53667;BMP280;39568;51.026;5.468;2022-07-29T09:30:32;100935.16;;;26.08
53667;BMP280;39568;51.026;5.468;2022-07-29T09:33:03;100928.56;;;26.98
53667;BMP280;39568;51.026;5.468;2022-07-29T09:35:30;100938.81;;;27.63
53667;BMP280;39568;51.026;5.468;2022-07-29T09:38:12;100929.25;;;28.61
53667;BMP280;39568;51.026;5.468;2022-07-29T09:40:56;100946.63;;;29.59
53667;BMP280;39568;51.026;5.468;2022-07-29T09:43:23;100945.09;;;30.40
53667;BMP280;39568;51.026;5.468;2022-07-29T09:45:51;100948.72;;;30.27
53667;BMP280;39568;51.026;5.468;2022-07-29T09:48:20;100949.03;;;30.70
53667;BMP280;39568;51.026;5.468;2022-07-29T09:50:48;100927.06;;;31.89
53667;BMP280;39568;51.026;5.468;2022-07-29T09:53:32;100936.47;;;33.00
53667;BMP280;39568;51.026;5.468;2022-07-29T09:56:05;100929.81;;;33.35
53667;BMP280;39568;51.026;5.468;2022-07-29T09:58:32;100930.16;;;33.76
53667;BMP280;39568;51.026;5.468;2022-07-29T10:01:01;100932.22;;;34.39
53667;BMP280;39568;51.026;5.468;2022-07-29T10:03:28;100935.50;;;35.01
53667;BMP280;39568;51.026;5.468;2022-07-29T10:06:07;100938.94;;;33.41
53667;BMP280;39568;51.026;5.468;2022-07-29T10:08:40;100934.53;;;33.58
53667;BMP280;39568;51.026;5.468;2022-07-29T10:11:12;100926.28;;;34.88
53667;BMP280;39568;51.026;5.468;2022-07-29T10:13:40;100938.75;;;34.56
53667;BMP280;39568;51.026;5.468;2022-07-29T10:16:08;100933.22;;;35.31
53667;BMP280;39568;51.026;5.468;2022-07-29T10:18:39;100935.97;;;34.20
53667;BMP280;39568;51.026;5.468;2022-07-29T10:21:07;100939.31;;;34.15
53667;BMP280;39568;51.026;5.468;2022-07-29T10:23:35;100933.69;;;34.44
53667;BMP280;39568;51.026;5.468;2022-07-29T10:26:04;100938.59;;;34.83
53667;BMP280;39568;51.026;5.468;2022-07-29T10:28:36;100921.63;;;36.42
53667;BMP280;39568;51.026;5.468;2022-07-29T10:31:22;100928.81;;;36.67
53667;BMP280;39568;51.026;5.468;2022-07-29T10:33:58;100917.88;;;36.19
53667;BMP280;39568;51.026;5.468;2022-07-29T10:36:43;100927.22;;;36.48
53667;BMP280;39568;51.026;5.468;2022-07-29T10:39:23;100923.50;;;34.88
53667;BMP280;39568;51.026;5.468;2022-07-29T10:42:05;100929.72;;;33.31
53667;BMP280;39568;51.026;5.468;2022-07-29T10:44:40;100937.41;;;33.62
53667;BMP280;39568;51.026;5.468;2022-07-29T10:47:19;100928.34;;;34.52
53667;BMP280;39568;51.026;5.468;2022-07-29T10:49:57;100921.81;;;35.11
53667;BMP280;39568;51.026;5.468;2022-07-29T10:55:33;100906.25;;;38.38
53667;BMP280;39568;51.026;5.468;2022-07-29T10:58:13;100913.00;;;37.73
53667;BMP280;39568;51.026;5.468;2022-07-29T11:00:40;100916.91;;;37.34
53667;BMP280;39568;51.026;5.468;2022-07-29T11:03:10;100915.81;;;37.83
53667;BMP280;39568;51.026;5.468;2022-07-29T11:05:57;100913.94;;;38.75
53667;BMP280;39568;51.026;5.468;2022-07-29T11:08:24;100921.63;;;38.81
53667;BMP280;39568;51.026;5.468;2022-07-29T11:11:29;100904.41;;;37.33
53667;BMP280;39568;51.026;5.468;2022-07-29T11:13:51;100922.88;;;34.54
53667;BMP280;39568;51.026;5.468;2022-07-29T11:16:20;100922.34;;;33.98
53667;BMP280;39568;51.026;5.468;2022-07-29T11:21:48;100922.66;;;33.81
53667;BMP280;39568;51.026;5.468;2022-07-29T11:24:18;100924.56;;;34.04
53667;BMP280;39568;51.026;5.468;2022-07-29T11:27:06;100914.06;;;36.50
53667;BMP280;39568;51.026;5.468;2022-07-29T11:29:35;100910.25;;;37.77
53667;BMP280;39568;51.026;5.468;2022-07-29T11:32:09;100913.13;;;38.01
53667;BMP280;39568;51.026;5.468;2022-07-29T11:34:36;100913.28;;;38.59
53667;BMP280;39568;51.026;5.468;2022-07-29T11:37:22;100905.72;;;37.24
53667;BMP280;39568;51.026;5.468;2022-07-29T11:40:17;100907.69;;;39.07
53667;BMP280;39568;51.026;5.468;2022-07-29T11:42:46;100908.28;;;39.60
53667;BMP280;39568;51.026;5.468;2022-07-29T11:45:22;100906.13;;;37.94
53667;BMP280;39568;51.026;5.468;2022-07-29T11:47:51;100910.41;;;38.23
53667;BMP280;39568;51.026;5.468;2022-07-29T11:50:26;100921.53;;;39.45
53667;BMP280;39568;51.026;5.468;2022-07-29T11:52:53;100911.78;;;39.56
53667;BMP280;39568;51.026;5.468;2022-07-29T11:55:22;100914.84;;;40.35
53667;BMP280;39568;51.026;5.468;2022-07-29T11:57:51;100911.28;;;37.22
53667;BMP280;39568;51.026;5.468;2022-07-29T12:00:26;100920.38;;;33.44
53667;BMP280;39568;51.026;5.468;2022-07-29T12:02:55;100915.09;;;32.02
53667;BMP280;39568;51.026;5.468;2022-07-29T12:05:37;100921.16;;;32.22
53667;BMP280;39568;51.026;5.468;2022-07-29T12:08:07;100919.44;;;33.63
53667;BMP280;39568;51.026;5.468;2022-07-29T12:10:34;100920.47;;;34.74
53667;BMP280;39568;51.026;5.468;2022-07-29T12:13:01;100913.16;;;33.88
53667;BMP280;39568;51.026;5.468;2022-07-29T12:15:29;100909.84;;;33.09
53667;BMP280;39568;51.026;5.468;2022-07-29T12:17:59;100903.91;;;32.93
53667;BMP280;39568;51.026;5.468;2022-07-29T12:20:35;100916.84;;;33.98
53667;BMP280;39568;51.026;5.468;2022-07-29T12:23:05;100910.81;;;36.68
53667;BMP280;39568;51.026;5.468;2022-07-29T12:25:42;100908.34;;;37.00
53667;BMP280;39568;51.026;5.468;2022-07-29T12:28:11;100908.19;;;37.87
53667;BMP280;39568;51.026;5.468;2022-07-29T12:30:43;100919.47;;;38.27
53667;BMP280;39568;51.026;5.468;2022-07-29T12:33:16;100903.94;;;35.61
53667;BMP280;39568;51.026;5.468;2022-07-29T12:35:47;100916.94;;;35.98
53667;BMP280;39568;51.026;5.468;2022-07-29T12:38:14;100912.72;;;37.29
53667;BMP280;39568;51.026;5.468;2022-07-29T12:40:46;100913.19;;;38.31
53667;BMP280;39568;51.026;5.468;2022-07-29T12:43:15;100912.59;;;38.87
53667;BMP280;39568;51.026;5.468;2022-07-29T12:45:48;100911.84;;;38.32
53667;BMP280;39568;51.026;5.468;2022-07-29T12:48:16;100908.56;;;40.36
53667;BMP280;39568;51.026;5.468;2022-07-29T12:50:55;100910.47;;;38.91
53667;BMP280;39568;51.026;5.468;2022-07-29T12:53:24;100914.16;;;40.34
53667;BMP280;39568;51.026;5.468;2022-07-29T12:55:53;100910.47;;;39.17
53667;BMP280;39568;51.026;5.468;2022-07-29T12:58:31;100916.00;;;38.39
53667;BMP280;39568;51.026;5.468;2022-07-29T13:01:05;100906.28;;;39.22
53667;BMP280;39568;51.026;5.468;2022-07-29T13:03:43;100912.31;;;37.76
53667;BMP280;39568;51.026;5.468;2022-07-29T13:06:31;100906.66;;;33.46
53667;BMP280;39568;51.026;5.468;2022-07-29T13:09:00;100917.69;;;30.59
53667;BMP280;39568;51.026;5.468;2022-07-29T13:11:29;100927.97;;;29.89
53667;BMP280;39568;51.026;5.468;2022-07-29T13:13:57;100926.00;;;31.57
53667;BMP280;39568;51.026;5.468;2022-07-29T13:16:30;100910.41;;;33.31
53667;BMP280;39568;51.026;5.468;2022-07-29T13:19:10;100918.22;;;34.65
53667;BMP280;39568;51.026;5.468;2022-07-29T13:21:38;100914.56;;;35.77
53667;BMP280;39568;51.026;5.468;2022-07-29T13:24:06;100916.84;;;35.90
53667;BMP280;39568;51.026;5.468;2022-07-29T13:26:34;100914.53;;;35.29
53667;BMP280;39568;51.026;5.468;2022-07-29T13:29:04;100905.09;;;34.65
53667;BMP280;39568;51.026;5.468;2022-07-29T13:31:32;100918.56;;;33.54
53667;BMP280;39568;51.026;5.468;2022-07-29T13:34:00;100903.38;;;32.98
53667;BMP280;39568;51.026;5.468;2022-07-29T13:36:28;100907.47;;;32.03
53667;BMP280;39568;51.026;5.468;2022-07-29T13:38:56;100898.66;;;32.54
53667;BMP280;39568;51.026;5.468;2022-07-29T13:41:22;100912.31;;;32.73
53667;BMP280;39568;51.026;5.468;2022-07-29T13:43:52;100903.81;;;34.03
53667;BMP280;39568;51.026;5.468;2022-07-29T13:46:19;100910.00;;;35.50
53667;BMP280;39568;51.026;5.468;2022-07-29T13:48:47;100896.22;;;37.55
53667;BMP280;39568;51.026;5.468;2022-07-29T13:51:15;100894.63;;;36.46
53667;BMP280;39568;51.026;5.468;2022-07-29T13:53:42;100900.28;;;34.68
53667;BMP280;39568;51.026;5.468;2022-07-29T13:56:09;100900.44;;;32.67
53667;BMP280;39568;51.026;5.468;2022-07-29T13:58:35;100910.63;;;31.50
53667;BMP280;39568;51.026;5.468;2022-07-29T14:01:07;100901.53;;;30.87
53667;BMP280;39568;51.026;5.468;2022-07-29T14:03:37;100912.63;;;31.48
53667;BMP280;39568;51.026;5.468;2022-07-29T14:06:10;100905.34;;;33.21
53667;BMP280;39568;51.026;5.468;2022-07-29T14:08:37;100895.53;;;33.14
53667;BMP280;39568;51.026;5.468;2022-07-29T14:11:03;100896.22;;;32.40
53667;BMP280;39568;51.026;5.468;2022-07-29T14:13:32;100899.00;;;33.72
53667;BMP280;39568;51.026;5.468;2022-07-29T14:15:58;100900.66;;;34.17
53667;BMP280;39568;51.026;5.468;2022-07-29T14:18:25;100892.22;;;35.17
53667;BMP280;39568;51.026;5.468;2022-07-29T14:20:52;100907.75;;;34.26